createdAt,value
2022-12-20T00:01:55.106Z,11.60
2022-12-20T00:04:23.662Z,11.77
2022-12-20T00:06:52.132Z,10.90
2022-12-20T00:09:20.376Z,11.52
2022-12-20T00:11:48.967Z,11.00
2022-12-20T00:14:17.456Z,11.40
2022-12-20T00:16:45.841Z,11.13
2022-12-20T00:19:14.124Z,11.82
2022-12-20T00:21:42.332Z,10.95
2022-12-20T00:24:11.428Z,10.07
2022-12-20T00:26:39.925Z,11.43
2022-12-20T00:29:08.525Z,10.55
2022-12-20T00:31:37.023Z,10.43
2022-12-20T00:34:05.500Z,10.90
2022-12-20T00:36:34.554Z,11.35
2022-12-20T00:39:03.203Z,11.13
2022-12-20T00:41:33.992Z,9.93
2022-12-20T00:44:03.323Z,9.98
2022-12-20T00:46:32.649Z,10.55
2022-12-20T00:49:01.179Z,10.18
2022-12-20T00:51:30.745Z,11.00
2022-12-20T00:53:59.439Z,10.48
2022-12-20T00:56:27.713Z,10.55
2022-12-20T00:58:59.978Z,11.15
2022-12-20T01:01:33.099Z,11.05
2022-12-20T01:04:02.812Z,9.98
2022-12-20T01:06:31.671Z,9.90
2022-12-20T01:11:35.333Z,9.43
2022-12-20T01:14:09.493Z,9.95
2022-12-20T01:16:43.062Z,10.38
2022-12-20T01:19:13.981Z,9.93
2022-12-20T01:21:43.064Z,9.90
2022-12-20T01:24:15.755Z,8.30
2022-12-20T01:26:45.220Z,9.80
2022-12-20T01:29:15.497Z,9.75
2022-12-20T01:31:43.892Z,10.27
2022-12-20T01:34:12.606Z,10.25
2022-12-20T01:36:41.347Z,8.93
2022-12-20T01:39:16.103Z,9.60
2022-12-20T01:41:46.393Z,10.30
2022-12-20T01:44:17.986Z,8.85
2022-12-20T01:46:48.596Z,9.15
2022-12-20T01:49:34.531Z,10.02
2022-12-20T01:52:17.378Z,8.80
2022-12-20T01:55:08.796Z,8.98
2022-12-20T01:57:56.351Z,8.38
2022-12-20T02:00:24.997Z,8.00
2022-12-20T02:02:53.509Z,8.80
2022-12-20T02:07:55.183Z,9.32
2022-12-20T02:10:33.419Z,9.00
2022-12-20T02:13:13.174Z,9.07
2022-12-20T02:15:56.989Z,9.65
2022-12-20T02:18:52.795Z,8.57
2022-12-20T02:21:33.315Z,8.40
2022-12-20T02:24:05.655Z,8.40
2022-12-20T02:26:58.746Z,8.77
2022-12-20T02:29:36.510Z,8.98
2022-12-20T02:32:20.670Z,9.17
2022-12-20T02:34:49.813Z,8.38
2022-12-20T02:37:18.310Z,7.88
2022-12-20T02:42:21.463Z,8.85
2022-12-20T02:44:58.172Z,8.75
2022-12-20T02:47:53.939Z,8.68
2022-12-20T02:50:33.285Z,8.68
2022-12-20T02:53:01.783Z,8.77
2022-12-20T02:55:39.731Z,8.52
2022-12-20T02:58:14.679Z,7.78
2022-12-20T03:00:46.483Z,8.80
2022-12-20T03:03:16.162Z,7.93
2022-12-20T03:05:48.109Z,8.18
2022-12-20T03:08:20.067Z,9.13
2022-12-20T03:10:51.416Z,8.52
2022-12-20T03:13:20.429Z,7.93
2022-12-20T03:16:10.316Z,8.05
2022-12-20T03:18:39.973Z,8.73
2022-12-20T03:21:08.370Z,8.68
2022-12-20T03:23:36.846Z,8.35
2022-12-20T03:26:05.561Z,8.73
2022-12-20T03:28:42.178Z,9.00
2022-12-20T03:31:14.123Z,7.55
2022-12-20T03:33:51.842Z,7.85
2022-12-20T03:36:20.589Z,8.90
2022-12-20T03:38:48.883Z,8.23
2022-12-20T03:41:17.542Z,8.57
2022-12-20T03:46:14.114Z,8.63
2022-12-20T03:48:42.663Z,8.27
2022-12-20T03:51:11.511Z,8.43
2022-12-20T03:53:40.433Z,8.35
2022-12-20T03:56:09.179Z,8.32
2022-12-20T04:01:22.720Z,8.27
2022-12-20T04:03:51.955Z,8.57
2022-12-20T04:06:20.579Z,8.52
2022-12-20T04:08:49.130Z,8.02
2022-12-20T04:11:24.685Z,7.00
2022-12-20T04:14:03.028Z,8.07
2022-12-20T04:16:31.409Z,8.23
2022-12-20T04:19:00.017Z,8.38
2022-12-20T04:21:35.886Z,7.55
2022-12-20T04:24:07.066Z,7.78
2022-12-20T04:26:48.480Z,6.95
2022-12-20T04:29:18.016Z,7.53
2022-12-20T04:31:47.340Z,8.00
2022-12-20T04:34:16.000Z,7.72
2022-12-20T04:36:44.192Z,8.95
2022-12-20T04:39:19.143Z,7.28
2022-12-20T04:42:09.827Z,6.97
2022-12-20T04:44:38.891Z,7.03
2022-12-20T04:47:07.214Z,7.05
2022-12-20T04:49:35.737Z,7.07
2022-12-20T04:52:04.200Z,7.40
2022-12-20T04:54:32.529Z,7.38
2022-12-20T04:57:13.274Z,7.85
2022-12-20T04:59:42.223Z,7.32
2022-12-20T05:02:14.117Z,7.10
2022-12-20T05:04:50.458Z,6.70
2022-12-20T05:07:18.854Z,7.10
2022-12-20T05:09:52.379Z,7.50
2022-12-20T05:12:20.789Z,7.47
2022-12-20T05:14:49.109Z,7.32
2022-12-20T05:17:21.083Z,7.53
2022-12-20T05:19:49.320Z,6.90
2022-12-20T05:22:17.991Z,6.93
2022-12-20T05:25:03.678Z,6.95
2022-12-20T05:27:35.903Z,6.50
2022-12-20T05:30:06.023Z,7.28
2022-12-20T05:32:34.641Z,6.38
2022-12-20T05:35:02.742Z,7.20
2022-12-20T05:37:32.536Z,7.15
2022-12-20T05:40:09.520Z,7.28
2022-12-20T05:42:38.523Z,5.80
2022-12-20T05:45:07.709Z,7.43
2022-12-20T05:47:45.444Z,6.65
2022-12-20T05:50:18.639Z,7.50
2022-12-20T05:53:19.365Z,6.75
2022-12-20T05:55:54.489Z,6.20
2022-12-20T05:58:28.119Z,6.60
2022-12-20T06:01:06.869Z,6.57
2022-12-20T06:03:40.554Z,6.55
2022-12-20T06:06:15.200Z,6.95
2022-12-20T06:08:47.124Z,6.80
2022-12-20T06:11:41.243Z,7.22
2022-12-20T06:14:12.547Z,7.50
2022-12-20T06:16:45.759Z,6.47
2022-12-20T06:19:21.234Z,6.95
2022-12-20T06:21:53.731Z,6.45
2022-12-20T06:24:29.297Z,6.65
2022-12-20T06:26:57.691Z,7.38
2022-12-20T06:29:27.399Z,6.65
2022-12-20T06:32:03.745Z,6.95
2022-12-20T06:34:33.340Z,6.78
2022-12-20T06:37:02.778Z,6.82
2022-12-20T06:39:34.683Z,6.63
2022-12-20T06:42:08.400Z,6.32
2022-12-20T06:44:38.022Z,6.90
2022-12-20T06:47:06.335Z,7.10
2022-12-20T06:49:34.773Z,7.85
2022-12-20T06:52:10.281Z,6.57
2022-12-20T06:54:48.123Z,7.15
2022-12-20T06:57:16.870Z,6.72
2022-12-20T06:59:48.554Z,6.75
2022-12-20T07:02:17.310Z,7.22
2022-12-20T07:04:45.908Z,7.07
2022-12-20T07:07:14.863Z,7.43
2022-12-20T07:09:43.278Z,7.07
2022-12-20T07:12:12.611Z,6.93
2022-12-20T07:14:40.839Z,7.03
2022-12-20T07:17:09.442Z,6.45
2022-12-20T07:22:06.344Z,7.05
2022-12-20T07:27:03.235Z,6.80
2022-12-20T07:29:31.511Z,6.60
2022-12-20T07:31:59.957Z,7.75
2022-12-20T07:34:28.172Z,6.53
2022-12-20T07:36:56.795Z,7.13
2022-12-20T07:39:25.186Z,6.75
2022-12-20T07:41:56.861Z,7.60
2022-12-20T07:44:25.222Z,7.18
2022-12-20T07:46:53.640Z,7.70
2022-12-20T07:49:21.842Z,7.47
2022-12-20T07:51:54.399Z,7.45
2022-12-20T07:54:27.222Z,7.68
2022-12-20T07:57:02.316Z,7.18
2022-12-20T07:59:41.205Z,6.88
2022-12-20T08:02:16.267Z,7.45
2022-12-20T08:04:45.510Z,7.70
2022-12-20T08:07:13.848Z,7.20
2022-12-20T08:09:44.409Z,7.50
2022-12-20T08:12:17.150Z,7.30
2022-12-20T08:14:46.349Z,7.03
2022-12-20T08:17:14.639Z,7.28
2022-12-20T08:19:42.969Z,7.35
2022-12-20T08:22:12.112Z,7.20
2022-12-20T08:24:40.240Z,7.45
2022-12-20T08:27:09.485Z,7.85
2022-12-20T08:29:37.842Z,6.97
2022-12-20T08:32:06.168Z,7.10
2022-12-20T08:34:34.435Z,7.40
2022-12-20T08:37:04.411Z,8.02
2022-12-20T08:39:36.018Z,7.82
2022-12-20T08:42:06.088Z,7.78
2022-12-20T08:44:35.141Z,8.02
2022-12-20T08:47:03.488Z,7.15
2022-12-20T08:49:31.862Z,6.78
2022-12-20T08:52:00.148Z,7.55
2022-12-20T08:54:28.642Z,7.70
2022-12-20T08:56:57.036Z,7.38
2022-12-20T08:59:25.363Z,7.68
2022-12-20T09:01:53.858Z,7.32
2022-12-20T09:04:22.649Z,7.82
2022-12-20T09:09:18.912Z,7.70
2022-12-20T09:11:47.239Z,7.88
2022-12-20T09:14:15.447Z,7.35
2022-12-20T09:16:43.848Z,7.72
2022-12-20T09:19:14.122Z,7.25
2022-12-20T09:21:42.714Z,7.65
2022-12-20T09:24:11.257Z,6.97
2022-12-20T09:26:39.731Z,6.88
2022-12-20T09:29:08.032Z,6.93
2022-12-20T09:31:36.181Z,7.68
2022-12-20T09:34:04.600Z,7.13
2022-12-20T09:36:33.095Z,6.93
2022-12-20T09:39:01.468Z,7.40
2022-12-20T09:41:38.437Z,7.30
2022-12-20T09:44:19.158Z,6.82
2022-12-20T09:46:56.336Z,6.32
2022-12-20T09:49:30.208Z,7.53
2022-12-20T09:52:19.693Z,9.32
2022-12-20T09:55:03.393Z,9.57
2022-12-20T09:57:41.422Z,9.77
2022-12-20T10:00:18.449Z,8.05
2022-12-20T10:03:00.560Z,8.70
2022-12-20T10:05:44.742Z,7.97
2022-12-20T10:08:34.566Z,8.32
2022-12-20T10:11:11.062Z,9.35
2022-12-20T10:13:45.871Z,9.05
2022-12-20T10:16:17.395Z,9.95
2022-12-20T10:19:22.158Z,9.70
2022-12-20T10:22:23.228Z,8.65
2022-12-20T10:25:12.773Z,8.80
2022-12-20T10:34:09.074Z,9.43
2022-12-20T10:36:39.731Z,10.02
2022-12-20T10:39:10.395Z,9.13
2022-12-20T10:41:41.523Z,9.48
2022-12-20T10:44:16.024Z,10.10
2022-12-20T10:46:58.981Z,10.25
2022-12-20T10:49:36.315Z,10.07
2022-12-20T10:52:10.673Z,10.13
2022-12-20T10:54:46.757Z,9.90
2022-12-20T10:57:26.296Z,10.07
2022-12-20T11:00:01.281Z,9.68
2022-12-20T11:02:40.911Z,10.20
2022-12-20T11:07:27.890Z,10.23
2022-12-20T11:09:59.197Z,10.73
2022-12-20T11:12:27.800Z,10.20
2022-12-20T11:15:12.470Z,10.02
2022-12-20T11:17:48.108Z,9.68
2022-12-20T11:20:46.146Z,9.90
2022-12-20T11:23:40.927Z,8.80
2022-12-20T11:26:52.129Z,10.40
2022-12-20T11:29:38.668Z,11.32
2022-12-20T11:32:23.523Z,11.30
2022-12-20T11:35:22.487Z,10.63
2022-12-20T11:38:15.408Z,10.57
2022-12-20T11:41:03.936Z,10.93
2022-12-20T11:44:25.269Z,10.55
2022-12-20T11:46:57.487Z,10.82
2022-12-20T11:49:51.311Z,10.65
2022-12-20T11:52:51.817Z,10.75
2022-12-20T11:55:31.917Z,10.77
2022-12-20T11:58:28.165Z,11.60
2022-12-20T12:00:59.403Z,10.10
2022-12-20T12:03:40.475Z,11.30
2022-12-20T12:06:31.941Z,11.25
2022-12-20T12:09:10.390Z,12.00
2022-12-20T12:14:39.878Z,11.27
2022-12-20T12:17:21.990Z,12.38
2022-12-20T12:19:53.169Z,10.95
2022-12-20T12:22:28.767Z,11.05
2022-12-20T12:25:02.436Z,11.25
2022-12-20T12:27:30.757Z,11.00
2022-12-20T12:29:59.561Z,10.75
2022-12-20T12:35:24.423Z,10.65
2022-12-20T12:38:15.866Z,10.85
2022-12-20T12:41:05.967Z,11.02
2022-12-20T12:43:40.701Z,11.07
2022-12-20T12:46:36.430Z,11.65
2022-12-20T12:49:15.102Z,11.02
2022-12-20T12:51:50.817Z,10.45
2022-12-20T12:54:37.299Z,10.75
2022-12-20T12:57:16.464Z,10.50
2022-12-20T12:59:49.715Z,12.10
2022-12-20T13:02:18.113Z,11.63
2022-12-20T13:05:07.178Z,11.23
2022-12-20T13:07:35.627Z,11.02
2022-12-20T13:10:23.820Z,11.27
2022-12-20T13:12:52.110Z,11.18
2022-12-20T13:15:23.065Z,11.10
2022-12-20T13:17:51.632Z,11.65
2022-12-20T13:23:11.928Z,10.13
2022-12-20T13:25:51.667Z,10.65
2022-12-20T13:28:26.358Z,11.18
2022-12-20T13:30:54.729Z,10.70
2022-12-20T13:33:47.402Z,11.27
2022-12-20T13:36:37.939Z,11.82
2022-12-20T13:39:26.234Z,11.07
2022-12-20T13:42:17.646Z,10.23
2022-12-20T13:44:50.272Z,10.70
2022-12-20T13:47:32.317Z,11.20
2022-12-20T13:50:24.539Z,10.45
2022-12-20T13:52:53.129Z,10.52
2022-12-20T13:55:31.879Z,9.95
2022-12-20T14:00:33.193Z,10.55
2022-12-20T14:03:02.854Z,11.05
2022-12-20T14:05:38.172Z,9.32
2022-12-20T14:08:19.422Z,10.02
2022-12-20T14:10:48.778Z,11.05
2022-12-20T14:13:28.738Z,10.43
2022-12-20T14:16:20.022Z,9.73
2022-12-20T14:18:59.751Z,10.32
2022-12-20T14:21:30.156Z,9.95
2022-12-20T14:24:01.574Z,10.73
2022-12-20T14:26:37.719Z,10.95
2022-12-20T14:29:12.972Z,10.43
2022-12-20T14:31:44.227Z,11.15
2022-12-20T14:34:12.400Z,10.13
2022-12-20T14:36:45.724Z,10.55
2022-12-20T14:39:55.156Z,11.00
2022-12-20T14:42:23.447Z,10.23
2022-12-20T14:44:51.947Z,9.73
2022-12-20T14:47:28.913Z,11.13
2022-12-20T14:50:01.070Z,10.65
2022-12-20T14:52:40.382Z,10.38
2022-12-20T14:55:39.616Z,9.45
2022-12-20T14:58:27.506Z,9.77
2022-12-20T15:01:02.577Z,9.82
2022-12-20T15:03:31.188Z,10.48
2022-12-20T15:06:00.761Z,10.65
2022-12-20T15:08:34.004Z,10.70
2022-12-20T15:11:11.268Z,9.93
2022-12-20T15:13:44.488Z,10.18
2022-12-20T15:16:21.664Z,9.18
2022-12-20T15:18:55.483Z,10.50
2022-12-20T15:21:23.749Z,10.70
2022-12-20T15:23:53.754Z,12.65
2022-12-20T15:26:25.740Z,12.23
2022-12-20T15:28:54.663Z,10.43
2022-12-20T15:31:32.567Z,11.15
2022-12-20T15:36:41.007Z,10.82
2022-12-20T15:39:13.524Z,10.43
2022-12-20T15:41:46.613Z,11.75
2022-12-20T15:44:25.861Z,10.98
2022-12-20T15:46:54.726Z,10.95
2022-12-20T15:49:25.368Z,10.48
2022-12-20T15:51:55.265Z,10.48
2022-12-20T15:54:30.997Z,10.02
2022-12-20T15:57:02.243Z,10.60
2022-12-20T16:02:25.627Z,11.00
2022-12-20T16:04:55.656Z,11.05
2022-12-20T16:07:24.111Z,10.15
2022-12-20T16:09:52.658Z,9.07
2022-12-20T16:12:26.596Z,10.60
2022-12-20T16:14:55.085Z,10.60
2022-12-20T16:17:23.604Z,10.75
2022-12-20T16:19:52.094Z,9.65
2022-12-20T16:22:23.100Z,10.10
2022-12-20T16:24:52.323Z,9.00
2022-12-20T16:27:20.858Z,10.05
2022-12-20T16:29:49.344Z,11.00
2022-12-20T16:32:19.677Z,10.05
2022-12-20T16:34:50.053Z,10.77
2022-12-20T16:37:18.787Z,9.77
2022-12-20T16:42:17.147Z,9.55
2022-12-20T16:44:46.372Z,10.32
2022-12-20T16:47:15.250Z,9.93
2022-12-20T16:49:51.792Z,9.90
2022-12-20T16:52:22.460Z,10.18
2022-12-20T16:54:51.652Z,9.57
2022-12-20T16:59:48.136Z,9.60
2022-12-20T17:02:31.186Z,10.10
2022-12-20T17:05:00.372Z,9.15
2022-12-20T17:07:29.878Z,9.63
2022-12-20T17:10:13.301Z,10.10
2022-12-20T17:12:41.979Z,9.60
2022-12-20T17:15:25.304Z,9.52
2022-12-20T17:17:54.565Z,9.90
2022-12-20T17:25:40.754Z,9.65
2022-12-20T17:28:08.915Z,9.93
2022-12-20T17:30:37.216Z,8.80
2022-12-20T17:33:05.692Z,8.48
2022-12-20T17:35:34.055Z,9.15
2022-12-20T17:38:02.305Z,10.35
2022-12-20T17:40:30.706Z,9.25
2022-12-20T17:42:58.993Z,10.48
2022-12-20T17:45:30.985Z,9.48
2022-12-20T17:47:59.775Z,9.15
2022-12-20T17:52:56.363Z,8.23
2022-12-20T17:55:29.033Z,8.80
2022-12-20T17:57:57.473Z,9.43
2022-12-20T18:00:31.935Z,10.27
2022-12-20T18:03:07.276Z,9.48
2022-12-20T18:05:35.681Z,8.68
2022-12-20T18:08:04.387Z,8.20
2022-12-20T18:10:32.789Z,9.18
2022-12-20T18:13:01.215Z,9.40
2022-12-20T18:15:29.344Z,9.80
2022-12-20T18:17:57.746Z,9.85
2022-12-20T18:20:25.977Z,9.30
2022-12-20T18:22:54.305Z,9.40
2022-12-20T18:25:22.646Z,9.43
2022-12-20T18:27:50.951Z,9.55
2022-12-20T18:30:19.339Z,9.77
2022-12-20T18:32:47.691Z,9.77
2022-12-20T18:35:16.007Z,10.50
2022-12-20T18:37:44.498Z,8.77
2022-12-20T18:40:12.872Z,9.05
2022-12-20T18:42:41.104Z,9.00
2022-12-20T18:45:09.987Z,9.07
2022-12-20T18:47:38.317Z,8.90
2022-12-20T18:50:11.899Z,8.57
2022-12-20T18:52:40.080Z,9.73
2022-12-20T18:55:10.330Z,10.15
2022-12-20T18:57:38.602Z,10.38
2022-12-20T19:00:07.412Z,10.30
2022-12-20T19:02:35.977Z,9.52
2022-12-20T19:07:32.503Z,9.02
2022-12-20T19:10:00.753Z,9.38
2022-12-20T19:12:29.050Z,11.13
2022-12-20T19:14:57.360Z,10.07
2022-12-20T19:17:25.749Z,9.98
2022-12-20T19:19:54.276Z,10.98
2022-12-20T19:22:22.729Z,10.10
2022-12-20T19:24:51.108Z,9.55
2022-12-20T19:27:22.615Z,10.82
2022-12-20T19:29:50.961Z,10.20
2022-12-20T19:32:19.138Z,10.90
2022-12-20T19:34:47.640Z,10.18
2022-12-20T19:37:16.072Z,10.35
2022-12-20T19:39:44.537Z,10.63
2022-12-20T19:42:24.155Z,11.10
2022-12-20T19:44:53.124Z,11.15
2022-12-20T19:47:21.610Z,10.50
2022-12-20T19:49:49.979Z,11.50
2022-12-20T19:52:28.967Z,10.95
2022-12-20T19:54:57.789Z,10.77
2022-12-20T19:57:26.172Z,11.00
2022-12-20T19:59:56.259Z,11.13
2022-12-20T20:02:25.149Z,13.15
2022-12-20T20:04:54.919Z,13.85
2022-12-20T20:07:23.616Z,13.93
2022-12-20T20:09:51.919Z,14.52
2022-12-20T20:12:20.136Z,12.82
2022-12-20T20:14:48.600Z,12.32
2022-12-20T20:17:16.878Z,14.18
2022-12-20T20:19:45.364Z,13.52
2022-12-20T20:22:19.165Z,13.07
2022-12-20T20:24:51.048Z,14.18
2022-12-20T20:27:19.617Z,15.88
2022-12-20T20:29:50.447Z,15.05
2022-12-20T20:32:19.006Z,14.10
2022-12-20T20:34:47.254Z,16.02
2022-12-20T20:37:15.533Z,15.13
2022-12-20T20:39:44.167Z,15.45
2022-12-20T20:42:14.061Z,16.00
2022-12-20T20:44:44.255Z,15.57
2022-12-20T20:47:12.629Z,14.70
2022-12-20T20:49:41.147Z,16.02
2022-12-20T20:52:09.604Z,18.15
2022-12-20T20:54:37.871Z,17.63
2022-12-20T20:57:06.150Z,18.25
2022-12-20T20:59:34.365Z,16.40
2022-12-20T21:02:03.209Z,18.02
2022-12-20T21:08:48.450Z,18.08
2022-12-20T21:11:16.948Z,18.02
2022-12-20T21:13:45.357Z,18.80
2022-12-20T21:16:16.425Z,20.20
2022-12-20T21:18:44.698Z,20.70
2022-12-20T21:21:14.180Z,20.13
2022-12-20T21:23:45.819Z,20.08
2022-12-20T21:26:15.588Z,20.63
2022-12-20T21:28:44.448Z,20.23
2022-12-20T21:33:46.267Z,21.00
2022-12-20T21:38:53.763Z,22.50
2022-12-20T21:41:24.618Z,23.33
2022-12-20T21:43:56.142Z,23.98
2022-12-20T21:46:24.741Z,22.98
2022-12-20T21:48:52.968Z,23.20
2022-12-20T21:51:23.490Z,23.45
2022-12-20T21:53:53.751Z,22.73
2022-12-20T21:56:23.578Z,23.67
2022-12-20T21:58:52.298Z,23.48
2022-12-20T22:04:04.179Z,22.15
2022-12-20T22:06:34.445Z,23.58
2022-12-20T22:09:05.098Z,22.77
2022-12-20T22:11:33.990Z,22.08
2022-12-20T22:16:31.618Z,24.25
2022-12-20T22:19:01.374Z,23.50
2022-12-20T22:21:31.917Z,23.45
2022-12-20T22:24:01.442Z,23.33
2022-12-20T22:26:32.348Z,22.95
2022-12-20T22:29:05.911Z,23.33
2022-12-20T22:31:35.654Z,23.77
2022-12-20T22:34:04.748Z,23.00
2022-12-20T22:36:33.134Z,23.27
2022-12-20T22:39:01.436Z,21.40
2022-12-20T22:41:31.670Z,22.60
2022-12-20T22:44:00.551Z,23.02
2022-12-20T22:46:30.447Z,21.58
2022-12-20T22:48:59.752Z,23.02
2022-12-20T22:51:28.657Z,23.10
2022-12-20T22:53:58.507Z,23.88
2022-12-20T22:56:26.878Z,21.48
2022-12-20T22:58:55.364Z,23.65
2022-12-20T23:01:25.182Z,22.83
2022-12-20T23:03:53.800Z,23.02
2022-12-20T23:06:22.355Z,23.55
2022-12-20T23:08:50.799Z,22.00
2022-12-20T23:11:23.966Z,24.13
2022-12-20T23:13:52.399Z,24.40
2022-12-20T23:16:20.941Z,22.20
2022-12-20T23:18:49.352Z,25.20
2022-12-20T23:21:17.491Z,23.60
2022-12-20T23:23:48.613Z,22.65
2022-12-20T23:26:24.330Z,24.10
2022-12-20T23:28:52.723Z,24.58
2022-12-20T23:31:20.911Z,23.67
2022-12-20T23:33:50.159Z,24.27
2022-12-20T23:36:18.416Z,24.42
2022-12-20T23:41:15.085Z,24.42
2022-12-20T23:43:43.766Z,24.55
2022-12-20T23:46:15.080Z,25.05
2022-12-20T23:48:43.651Z,26.00
2022-12-20T23:51:12.353Z,25.50
2022-12-20T23:56:14.769Z,24.98
2022-12-20T23:58:44.560Z,25.40
